Time;durP1;ratioP1;P1;durP2;ratioP2;P2;SDS_P1;SDS_P2;PMS_P1;PMS_P2;Temp;Humidity;BMP_temperature;BMP_pressure;BME280_temperature;BME280_humidity;BME280_pressure;Samples;Min_cycle;Max_cycle;Signal;HPM_P1;HPM_P2
2023/03/02 00:01:55;;;;;;;362.15;148.52;;;2.90;99.90;;;;;;5056095;28;20021;-65
2023/03/02 00:04:43;;;;;;;380.02;145.95;;;2.90;99.90;;;;;;5056208;28;20029;-65
2023/03/02 00:07:14;;;;;;;358.85;147.75;;;2.90;99.90;;;;;;5056106;28;20068;-65
2023/03/02 00:09:41;;;;;;;;;;;3.00;99.90;;;;;;5056498;28;20067;-65
2023/03/02 00:12:08;;;;;;;376.95;150.02;;;2.90;99.90;;;;;;5055996;28;19934;-65
2023/03/02 00:14:34;;;;;;;397.00;153.25;;;3.00;99.90;;;;;;5056008;28;20064;-65
2023/03/02 00:17:01;;;;;;;380.77;152.40;;;3.10;99.90;;;;;;5055865;28;20052;-65
2023/03/02 00:19:27;;;;;;;459.60;173.10;;;3.10;99.90;;;;;;5055846;28;20029;-65
2023/03/02 00:21:53;;;;;;;560.00;216.50;;;3.10;99.90;;;;;;5055882;28;20021;-65
2023/03/02 00:24:19;;;;;;;574.47;211.43;;;3.10;99.90;;;;;;5055093;28;20104;-65
2023/03/02 00:26:45;;;;;;;540.80;193.25;;;3.00;99.90;;;;;;5055753;28;20029;-65
2023/03/02 00:29:11;;;;;;;521.20;190.65;;;3.00;99.90;;;;;;5055675;28;20032;-65
2023/03/02 00:31:37;;;;;;;496.75;188.38;;;3.10;99.90;;;;;;5055561;28;20060;-65
2023/03/02 00:34:03;;;;;;;382.98;148.90;;;3.10;99.90;;;;;;5055599;28;20029;-65
2023/03/02 00:36:29;;;;;;;349.55;142.80;;;3.00;99.90;;;;;;5055643;28;20033;-65
2023/03/02 00:38:56;;;;;;;320.65;135.13;;;3.00;99.90;;;;;;5048097;28;20032;-65
2023/03/02 00:41:23;;;;;;;395.98;153.27;;;3.00;99.90;;;;;;5035343;28;20045;-65
2023/03/02 00:43:49;;;;;;;361.13;145.25;;;3.00;99.90;;;;;;5035387;28;20120;-65
2023/03/02 00:46:18;;;;;;;344.55;140.13;;;3.10;99.90;;;;;;5034083;28;20029;-65
2023/03/02 00:48:44;;;;;;;392.80;157.98;;;3.10;99.90;;;;;;5035596;28;20037;-65
2023/03/02 00:51:11;;;;;;;357.83;151.45;;;3.10;99.90;;;;;;5035485;28;20026;-65
2023/03/02 00:53:37;;;;;;;350.33;147.43;;;3.00;99.90;;;;;;5033614;28;20091;-65
2023/03/02 00:56:04;;;;;;;370.38;157.65;;;3.10;99.90;;;;;;5034081;28;20033;-65
2023/03/02 00:58:34;;;;;;;361.23;150.47;;;3.00;99.90;;;;;;5033934;28;20025;-65
2023/03/02 01:01:07;;;;;;;347.50;146.85;;;3.10;99.90;;;;;;5033495;28;20274;-65
2023/03/02 01:03:36;;;;;;;372.25;151.15;;;3.10;99.90;;;;;;5033667;28;20552;-65
2023/03/02 01:06:03;;;;;;;373.73;149.15;;;3.10;99.90;;;;;;5033647;28;20108;-65
2023/03/02 01:08:30;;;;;;;394.92;160.57;;;3.10;99.90;;;;;;5035121;28;20025;-65
2023/03/02 01:11:00;;;;;;;349.05;148.73;;;3.10;99.90;;;;;;5034983;28;20446;-65
2023/03/02 01:13:27;;;;;;;360.48;147.35;;;3.00;99.90;;;;;;5035020;28;20040;-65
2023/03/02 01:16:02;;;;;;;380.08;152.90;;;3.00;99.90;;;;;;5034876;28;20532;-65
2023/03/02 01:18:29;;;;;;;376.88;151.45;;;3.10;99.90;;;;;;5033540;28;20545;-65
2023/03/02 01:21:21;;;;;;;366.33;149.57;;;3.00;99.90;;;;;;5034668;28;20402;-65
2023/03/02 01:23:47;;;;;;;385.08;153.30;;;2.90;99.90;;;;;;5030733;28;20037;-65
2023/03/02 01:26:13;;;;;;;335.63;139.45;;;2.90;99.90;;;;;;5033545;28;20079;-65
2023/03/02 01:28:39;;;;;;;361.27;148.00;;;3.00;99.90;;;;;;5033393;28;20025;-65
2023/03/02 01:31:05;;;;;;;521.08;192.45;;;3.10;99.90;;;;;;5034702;28;20030;-65
2023/03/02 01:33:31;;;;;;;445.02;158.63;;;3.10;99.90;;;;;;5034687;28;20032;-65
2023/03/02 01:35:57;;;;;;;551.50;185.05;;;3.20;99.90;;;;;;5033807;28;20387;-65
2023/03/02 01:38:23;;;;;;;386.27;144.95;;;3.10;99.90;;;;;;5036347;28;20029;-65
2023/03/02 01:40:49;;;;;;;438.55;151.18;;;3.20;99.90;;;;;;5036361;28;20374;-65
2023/03/02 01:43:16;;;;;;;469.27;158.43;;;3.20;99.90;;;;;;5036436;28;20053;-65
2023/03/02 01:45:52;;;;;;;440.98;156.82;;;3.30;99.90;;;;;;5036698;28;20036;-65
2023/03/02 01:48:50;;;;;;;455.27;157.82;;;3.30;99.90;;;;;;5036541;28;20033;-65
2023/03/02 01:51:25;;;;;;;468.23;162.00;;;3.30;99.90;;;;;;5036691;28;20142;-65
2023/03/02 01:53:59;;;;;;;540.25;178.95;;;3.10;99.90;;;;;;5036330;28;20118;-65
2023/03/02 01:56:35;;;;;;;609.30;189.65;;;3.10;99.90;;;;;;5054396;28;20044;-65
2023/03/02 01:59:07;;;;;;;440.77;154.30;;;3.00;99.90;;;;;;5036355;28;20482;-65
2023/03/02 02:01:36;;;;;;;398.63;142.80;;;3.00;99.90;;;;;;5035979;28;20043;-65
2023/03/02 02:04:02;;;;;;;489.10;161.75;;;3.00;99.90;;;;;;5054275;28;20033;-65
2023/03/02 02:06:39;;;;;;;566.53;181.30;;;3.10;99.90;;;;;;5054119;28;20021;-65
2023/03/02 02:09:09;;;;;;;472.30;158.90;;;3.00;99.90;;;;;;5054577;28;20025;-65
2023/03/02 02:11:36;;;;;;;430.33;153.90;;;3.10;99.90;;;;;;5036845;28;20040;-65
2023/03/02 02:14:02;;;;;;;402.13;144.80;;;3.00;99.90;;;;;;5054435;28;20025;-65
2023/03/02 02:16:31;;;;;;;426.85;151.18;;;2.90;99.90;;;;;;5054641;28;20021;-65
2023/03/02 02:18:58;;;;;;;474.90;160.05;;;3.00;99.90;;;;;;5054812;28;20028;-65
2023/03/02 02:21:26;;;;;;;485.30;164.77;;;3.00;99.90;;;;;;5054865;28;20386;-65
2023/03/02 02:23:52;;;;;;;407.65;142.43;;;2.90;99.90;;;;;;5054890;28;20052;-65
2023/03/02 02:26:25;;;;;;;588.85;198.02;;;2.90;99.90;;;;;;5054788;28;20029;-65
2023/03/02 02:29:02;;;;;;;515.17;170.52;;;2.90;99.90;;;;;;5036876;28;20025;-65
2023/03/02 02:32:09;;;;;;;745.03;207.57;;;2.80;99.90;;;;;;5036760;28;20115;-65
2023/03/02 02:34:38;;;;;;;492.25;158.98;;;2.70;99.90;;;;;;5024743;28;20052;-65
2023/03/02 02:37:13;;;;;;;519.85;163.40;;;2.90;99.90;;;;;;5036691;28;20546;-65
2023/03/02 02:39:43;;;;;;;578.67;179.60;;;3.00;99.90;;;;;;5033225;28;20048;-65
2023/03/02 02:42:16;;;;;;;462.40;153.65;;;2.90;99.90;;;;;;5033105;28;20045;-65
2023/03/02 02:44:42;;;;;;;563.05;186.77;;;3.00;99.90;;;;;;5033501;28;20109;-65
2023/03/02 02:47:20;;;;;;;493.50;161.75;;;3.00;99.90;;;;;;5036001;28;20348;-65
2023/03/02 02:49:49;;;;;;;412.58;142.10;;;2.90;99.90;;;;;;5037128;28;20117;-65
2023/03/02 02:52:18;;;;;;;494.77;169.13;;;3.00;99.90;;;;;;5038451;28;20034;-65
2023/03/02 02:54:50;;;;;;;540.00;178.48;;;3.10;99.90;;;;;;5038310;28;20454;-65
2023/03/02 02:57:17;;;;;;;;;;;3.00;99.90;;;;;;5037413;28;20091;-65
2023/03/02 02:59:56;;;;;;;390.42;140.27;;;3.00;99.90;;;;;;5036862;28;19908;-65
2023/03/02 03:02:26;;;;;;;398.45;148.63;;;3.00;99.90;;;;;;5036776;28;20049;-65
2023/03/02 03:05:02;;;;;;;409.23;157.88;;;3.00;99.90;;;;;;5036658;28;20072;-65
2023/03/02 03:07:31;;;;;;;413.80;151.25;;;3.00;99.90;;;;;;5036692;28;20021;-65
2023/03/02 03:10:07;;;;;;;342.42;135.30;;;3.00;99.90;;;;;;5036784;28;20407;-65
2023/03/02 03:12:34;;;;;;;375.77;151.52;;;3.00;99.90;;;;;;5038000;28;20568;-65
2023/03/02 03:15:02;;;;;;;366.45;139.48;;;3.00;99.90;;;;;;5036645;28;20025;-65
2023/03/02 03:17:28;;;;;;;346.98;134.57;;;3.00;99.90;;;;;;5036554;28;20101;-65
2023/03/02 03:20:05;;;;;;;373.00;135.68;;;3.00;99.90;;;;;;5036542;28;20029;-65
2023/03/02 03:22:35;;;;;;;325.48;128.27;;;3.00;99.90;;;;;;5053022;28;20040;-65
2023/03/02 03:25:01;;;;;;;299.10;121.57;;;3.00;99.90;;;;;;5036475;28;20069;-65
2023/03/02 03:27:28;;;;;;;357.85;135.45;;;2.90;99.90;;;;;;5036426;28;20056;-65
2023/03/02 03:29:54;;;;;;;303.83;122.63;;;2.90;99.90;;;;;;5036229;28;20064;-65
2023/03/02 03:32:21;;;;;;;321.02;126.80;;;2.90;99.90;;;;;;5036390;28;20034;-65
2023/03/02 03:34:50;;;;;;;331.75;132.70;;;3.00;99.90;;;;;;5036329;28;20188;-65
2023/03/02 03:37:23;;;;;;;332.45;131.07;;;3.00;99.90;;;;;;5036161;28;20095;-65
2023/03/02 03:39:49;;;;;;;261.33;112.07;;;3.00;99.90;;;;;;5039444;28;20041;-65
2023/03/02 03:42:17;;;;;;;274.27;117.78;;;3.00;99.90;;;;;;5035765;28;20395;-65
2023/03/02 03:44:43;;;;;;;290.65;125.55;;;3.00;99.90;;;;;;5052630;28;20025;-65
2023/03/02 03:47:09;;;;;;;318.17;132.07;;;3.00;99.90;;;;;;5037401;28;20094;-65
2023/03/02 03:49:35;;;;;;;270.85;119.70;;;2.90;99.90;;;;;;5035889;28;20036;-65
2023/03/02 03:52:02;;;;;;;265.35;116.47;;;2.70;99.90;;;;;;5035914;28;20040;-65
2023/03/02 03:54:29;;;;;;;277.15;119.95;;;2.70;99.90;;;;;;5035929;28;20033;-64
2023/03/02 03:56:55;;;;;;;346.88;133.68;;;2.90;99.90;;;;;;5035761;28;20029;-65
2023/03/02 03:59:24;;;;;;;382.67;139.32;;;3.00;99.90;;;;;;5034808;28;20040;-65
2023/03/02 04:01:57;;;;;;;361.83;130.73;;;3.00;99.90;;;;;;5035758;28;20109;-65
2023/03/02 04:04:31;;;;;;;330.08;127.53;;;3.10;99.90;;;;;;5035656;28;20475;-65
2023/03/02 04:06:58;;;;;;;391.90;136.32;;;3.20;99.90;;;;;;5035593;28;20476;-64
2023/03/02 04:09:25;;;;;;;408.63;138.60;;;3.20;99.90;;;;;;5035645;28;20026;-65
2023/03/02 04:11:54;;;;;;;385.65;135.27;;;3.10;99.90;;;;;;5035494;28;20415;-64
2023/03/02 04:14:22;;;;;;;400.23;138.55;;;3.10;99.90;;;;;;5035532;28;20121;-65
2023/03/02 04:16:49;;;;;;;359.92;129.02;;;3.10;99.90;;;;;;5035456;28;20060;-65
2023/03/02 04:19:16;;;;;;;388.05;134.88;;;3.00;99.90;;;;;;5035392;28;20033;-65
2023/03/02 04:21:47;;;;;;;448.35;150.55;;;3.10;99.90;;;;;;5035408;28;20034;-64
2023/03/02 04:24:16;;;;;;;385.15;126.00;;;2.90;99.90;;;;;;5035299;28;20026;-64
2023/03/02 04:26:44;;;;;;;476.17;144.60;;;2.90;99.90;;;;;;5035398;28;20058;-65
2023/03/02 04:29:11;;;;;;;400.13;135.27;;;3.00;99.90;;;;;;5035347;28;20033;-65
2023/03/02 04:31:38;;;;;;;441.88;136.40;;;3.00;99.90;;;;;;5035124;28;20033;-65
2023/03/02 04:34:06;;;;;;;427.95;133.20;;;3.00;99.90;;;;;;5035164;28;20073;-65
2023/03/02 04:36:36;;;;;;;524.92;145.25;;;2.90;99.90;;;;;;5035125;28;20025;-65
2023/03/02 04:39:05;;;;;;;442.83;131.18;;;2.90;99.90;;;;;;5026698;28;20415;-65
2023/03/02 04:41:31;;;;;;;609.95;151.95;;;2.90;99.90;;;;;;5022159;28;20103;-65
2023/03/02 04:43:57;;;;;;;520.08;135.35;;;3.00;99.90;;;;;;5036224;28;20467;-65
2023/03/02 04:46:26;;;;;;;458.17;126.72;;;2.90;99.90;;;;;;5036314;28;20105;-65
2023/03/02 04:48:52;;;;;;;441.20;124.20;;;3.00;99.90;;;;;;5034935;28;20045;-65
2023/03/02 04:51:34;;;;;;;461.50;123.32;;;3.10;99.90;;;;;;5036096;28;20040;-65
2023/03/02 04:54:03;;;;;;;523.17;129.45;;;3.00;99.90;;;;;;5035955;28;20040;-65
2023/03/02 04:56:29;;;;;;;479.23;124.90;;;3.10;99.90;;;;;;5036047;28;20033;-65
2023/03/02 04:58:56;;;;;;;483.70;123.65;;;3.10;99.90;;;;;;5036059;28;20025;-65
2023/03/02 05:01:23;;;;;;;501.65;123.45;;;3.20;99.90;;;;;;5035907;28;20088;-65
2023/03/02 05:03:49;;;;;;;537.70;131.13;;;3.10;99.90;;;;;;5035849;28;20021;-65
2023/03/02 05:06:15;;;;;;;552.45;129.95;;;3.20;99.90;;;;;;5035860;28;20065;-65
2023/03/02 05:08:42;;;;;;;550.13;131.40;;;3.30;99.90;;;;;;5035758;28;20051;-65
2023/03/02 05:11:23;;;;;;;691.25;150.85;;;3.20;99.90;;;;;;5035573;28;20028;-65
2023/03/02 05:13:51;;;;;;;517.72;126.28;;;3.20;99.90;;;;;;5035748;28;20030;-65
2023/03/02 05:16:18;;;;;;;779.75;152.27;;;3.10;99.90;;;;;;5035598;28;20034;-65
2023/03/02 05:18:44;;;;;;;554.35;130.90;;;3.20;99.90;;;;;;5035612;28;20029;-65
2023/03/02 05:21:10;;;;;;;525.30;129.18;;;3.20;99.90;;;;;;5035635;28;20406;-65
2023/03/02 05:23:36;;;;;;;543.50;126.97;;;3.20;99.90;;;;;;5035491;28;20025;-65
2023/03/02 05:26:03;;;;;;;426.38;106.40;;;3.20;99.90;;;;;;5035692;28;20048;-65
2023/03/02 05:28:29;;;;;;;517.97;118.93;;;3.30;99.90;;;;;;5035660;28;20041;-65
2023/03/02 05:30:54;;;;;;;559.60;120.85;;;3.20;99.90;;;;;;5035437;28;20459;-65
2023/03/02 05:33:20;;;;;;;452.33;111.30;;;3.10;99.90;;;;;;5035480;28;20033;-65
2023/03/02 05:35:47;;;;;;;449.95;111.22;;;3.20;99.90;;;;;;5035462;28;20032;-65
2023/03/02 05:38:13;;;;;;;481.58;116.90;;;3.20;99.90;;;;;;5036782;28;20022;-65
2023/03/02 05:40:41;;;;;;;552.42;119.78;;;3.20;99.90;;;;;;5055176;28;20482;-65
2023/03/02 05:43:08;;;;;;;432.05;106.38;;;3.30;99.90;;;;;;5054896;28;20075;-65
2023/03/02 05:45:36;;;;;;;665.33;116.88;;;3.40;99.90;;;;;;5055173;28;20031;-65
2023/03/02 05:48:03;;;;;;;542.92;113.20;;;3.20;99.90;;;;;;5055286;28;20029;-65
2023/03/02 05:50:29;;;;;;;429.90;101.30;;;3.10;99.90;;;;;;5055226;28;20021;-65
2023/03/02 05:52:55;;;;;;;499.58;110.97;;;3.10;99.90;;;;;;5055142;28;20033;-65
2023/03/02 05:55:21;;;;;;;435.70;108.68;;;3.20;99.90;;;;;;5055090;28;20036;-65
2023/03/02 05:57:50;;;;;;;560.28;123.63;;;3.20;99.90;;;;;;5055049;28;20029;-65
2023/03/02 06:00:17;;;;;;;505.70;119.35;;;3.20;99.90;;;;;;5055080;28;20458;-65
2023/03/02 06:02:43;;;;;;;710.80;129.82;;;3.20;99.90;;;;;;5054958;28;20052;-65
2023/03/02 06:05:12;;;;;;;538.78;133.45;;;3.20;99.90;;;;;;5055042;28;20051;-65
2023/03/02 06:07:38;;;;;;;618.55;125.05;;;3.00;99.90;;;;;;5054890;28;20033;-65
2023/03/02 06:10:06;;;;;;;441.38;112.53;;;3.00;99.90;;;;;;5054989;28;20021;-65
2023/03/02 06:12:32;;;;;;;460.17;109.75;;;3.10;99.90;;;;;;5054778;28;20108;-65
2023/03/02 06:14:58;;;;;;;495.35;105.78;;;3.10;99.90;;;;;;5054303;28;20093;-65
2023/03/02 06:17:25;;;;;;;525.92;114.05;;;3.10;99.90;;;;;;5054001;28;20475;-65
2023/03/02 06:19:51;;;;;;;387.98;100.00;;;3.10;99.90;;;;;;5054019;28;20021;-65
2023/03/02 06:22:17;;;;;;;380.75;99.18;;;3.20;99.90;;;;;;5056335;28;20363;-65
2023/03/02 06:24:43;;;;;;;373.13;91.97;;;3.20;99.90;;;;;;5058761;28;20024;-65
2023/03/02 06:27:10;;;;;;;572.55;100.20;;;3.20;99.90;;;;;;5058693;28;20028;-65
2023/03/02 06:29:36;;;;;;;536.05;99.85;;;3.30;99.90;;;;;;5058500;28;20033;-66
2023/03/02 06:32:03;;;;;;;361.17;87.57;;;3.30;99.90;;;;;;5056091;28;20355;-65
2023/03/02 06:34:29;;;;;;;383.35;94.38;;;3.40;99.90;;;;;;5038507;28;20055;-65
2023/03/02 06:36:55;;;;;;;466.40;99.65;;;3.50;99.90;;;;;;5037625;28;20083;-65
2023/03/02 06:39:21;;;;;;;456.88;101.05;;;3.50;99.90;;;;;;5050355;28;20017;-65
2023/03/02 06:41:48;;;;;;;403.73;101.15;;;3.50;99.90;;;;;;5042038;28;20703;-65
2023/03/02 06:44:16;;;;;;;405.75;97.97;;;3.50;99.90;;;;;;5051339;28;20056;-65
2023/03/02 06:46:43;;;;;;;577.10;124.28;;;3.60;99.90;;;;;;5049941;28;20076;-65
2023/03/02 06:49:10;;;;;;;447.15;109.10;;;3.50;99.90;;;;;;5037275;28;20029;-65
2023/03/02 06:51:37;;;;;;;461.40;108.35;;;3.40;99.90;;;;;;5037609;28;20084;-65
2023/03/02 06:54:06;;;;;;;416.77;109.47;;;3.30;99.90;;;;;;5037223;28;20051;-65
2023/03/02 06:56:32;;;;;;;458.75;108.03;;;3.20;99.90;;;;;;5037659;28;20036;-65
2023/03/02 06:58:58;;;;;;;742.67;123.50;;;3.20;99.90;;;;;;5037478;28;20105;-65
2023/03/02 07:01:25;;;;;;;776.10;131.48;;;3.20;99.90;;;;;;5036726;28;20121;-65
2023/03/02 07:03:50;;;;;;;456.58;108.90;;;3.10;99.90;;;;;;5037082;28;20029;-65
2023/03/02 07:06:16;;;;;;;443.88;110.47;;;3.20;99.90;;;;;;5037166;28;20557;-65
2023/03/02 07:08:45;;;;;;;528.63;119.40;;;3.30;99.90;;;;;;5036916;28;20029;-65
2023/03/02 07:11:11;;;;;;;548.95;118.65;;;3.40;99.90;;;;;;5037237;28;20029;-65
2023/03/02 07:13:39;;;;;;;549.95;116.15;;;3.40;99.90;;;;;;5037111;28;20064;-65
2023/03/02 07:16:07;;;;;;;646.05;133.50;;;3.50;99.90;;;;;;5036620;28;20113;-65
2023/03/02 07:18:33;;;;;;;538.28;121.10;;;3.50;99.90;;;;;;5036903;28;20032;-65
2023/03/02 07:20:59;;;;;;;559.53;124.80;;;3.50;99.90;;;;;;5036956;28;20391;-66
2023/03/02 07:23:26;;;;;;;549.47;124.10;;;3.70;99.90;;;;;;5036563;28;20061;-65
2023/03/02 07:25:52;;;;;;;521.88;118.63;;;3.60;99.90;;;;;;5036704;28;20482;-65
2023/03/02 07:28:18;;;;;;;531.30;118.20;;;3.60;99.90;;;;;;5036800;28;20029;-65
2023/03/02 07:30:44;;;;;;;495.05;119.85;;;3.60;99.90;;;;;;5053903;28;20031;-65
2023/03/02 07:33:13;;;;;;;546.53;123.75;;;3.70;99.90;;;;;;5055491;28;20409;-65
2023/03/02 07:35:39;;;;;;;494.88;114.40;;;3.60;99.90;;;;;;5056552;28;20470;-65
2023/03/02 07:38:05;;;;;;;465.08;114.70;;;3.80;99.90;;;;;;5056432;28;20071;-66
2023/03/02 07:40:32;;;;;;;521.83;119.30;;;3.90;99.90;;;;;;5056434;28;20120;-66
2023/03/02 07:42:58;;;;;;;486.73;112.22;;;3.90;99.90;;;;;;5056188;28;20045;-66
2023/03/02 07:45:25;;;;;;;490.83;111.18;;;4.00;99.90;;;;;;5055805;28;20033;-66
2023/03/02 07:47:51;;;;;;;412.50;100.20;;;4.00;99.90;;;;;;5056191;28;20021;-66
2023/03/02 07:50:17;;;;;;;420.48;98.40;;;4.10;99.90;;;;;;5055507;28;20171;-66
2023/03/02 07:52:43;;;;;;;401.50;100.47;;;4.20;99.90;;;;;;5055002;28;20029;-65
2023/03/02 07:55:10;;;;;;;577.28;107.45;;;4.30;99.90;;;;;;5054907;28;20021;-65
2023/03/02 07:57:36;;;;;;;475.65;107.70;;;4.20;99.90;;;;;;5054509;28;20041;-66
2023/03/02 08:00:03;;;;;;;412.75;104.25;;;4.30;99.90;;;;;;5055161;28;20029;-66
2023/03/02 08:02:39;;;;;;;494.10;117.25;;;4.30;99.90;;;;;;5055064;28;20096;-66
2023/03/02 08:05:05;;;;;;;435.35;108.90;;;4.30;99.90;;;;;;5055199;28;20024;-66
2023/03/02 08:07:31;;;;;;;498.33;119.40;;;4.30;99.90;;;;;;5054872;28;20378;-66
2023/03/02 08:09:59;;;;;;;399.55;110.82;;;4.20;99.90;;;;;;5054911;28;20040;-66
2023/03/02 08:12:27;;;;;;;417.55;113.95;;;4.40;99.90;;;;;;5054759;28;20423;-66
2023/03/02 08:14:53;;;;;;;353.33;101.53;;;4.60;99.90;;;;;;5037535;28;20041;-66
2023/03/02 08:17:19;;;;;;;438.55;118.90;;;4.80;99.90;;;;;;5050893;28;20032;-66
2023/03/02 08:19:45;;;;;;;481.38;122.80;;;4.60;99.90;;;;;;5055074;28;20060;-66
2023/03/02 08:22:11;;;;;;;375.95;98.93;;;4.60;99.90;;;;;;5055249;28;20075;-66
2023/03/02 08:24:40;;;;;;;349.75;89.95;;;4.40;99.90;;;;;;5053726;28;20454;-66
2023/03/02 08:27:06;;;;;;;331.30;87.95;;;4.60;99.90;;;;;;5054397;28;20359;-66
2023/03/02 08:29:33;;;;;;;323.63;78.40;;;4.80;99.90;;;;;;5054910;28;20542;-66
2023/03/02 08:31:59;;;;;;;296.15;79.22;;;4.90;99.90;;;;;;5053277;28;20028;-66
2023/03/02 08:34:26;;;;;;;306.73;79.97;;;5.00;99.90;;;;;;5054791;28;20039;-67
2023/03/02 08:36:52;;;;;;;375.30;97.88;;;5.10;99.90;;;;;;5054325;28;20538;-68
2023/03/02 08:39:21;;;;;;;330.50;88.97;;;5.00;99.90;;;;;;5054208;28;20080;-68
2023/03/02 08:41:52;;;;;;;345.73;92.90;;;5.00;99.90;;;;;;5054231;28;20052;-68
2023/03/02 08:44:20;;;;;;;338.67;83.53;;;5.10;99.90;;;;;;5054406;28;20021;-68
2023/03/02 08:46:48;;;;;;;360.20;91.95;;;5.10;99.90;;;;;;5053529;28;20029;-68
2023/03/02 08:49:15;;;;;;;372.27;100.30;;;5.20;99.90;;;;;;5054412;28;20095;-68
2023/03/02 08:51:44;;;;;;;391.00;104.93;;;5.20;99.90;;;;;;5049604;28;20024;-68
2023/03/02 08:54:11;;;;;;;386.23;98.45;;;5.40;99.90;;;;;;5053847;28;20124;-68
2023/03/02 08:56:38;;;;;;;468.35;109.53;;;5.40;99.90;;;;;;5054544;28;20115;-68
2023/03/02 08:59:08;;;;;;;477.23;115.35;;;5.40;99.90;;;;;;5053838;28;20028;-68
2023/03/02 09:01:36;;;;;;;607.13;133.05;;;5.30;99.90;;;;;;5053364;28;20094;-68
2023/03/02 09:04:04;;;;;;;570.25;129.18;;;5.20;99.90;;;;;;5053545;28;20108;-68
2023/03/02 09:06:33;;;;;;;545.33;120.53;;;5.10;99.90;;;;;;5053709;28;20482;-68
2023/03/02 09:08:59;;;;;;;531.45;121.10;;;5.10;99.90;;;;;;5053971;28;20051;-68
2023/03/02 09:11:27;;;;;;;547.85;127.47;;;5.40;99.90;;;;;;5054367;28;20037;-68
2023/03/02 09:13:55;;;;;;;537.65;120.65;;;5.60;99.90;;;;;;5054561;28;20025;-68
2023/03/02 09:16:23;;;;;;;487.25;112.22;;;5.80;99.90;;;;;;5053596;28;20032;-68
2023/03/02 09:18:50;;;;;;;475.25;110.32;;;5.70;99.90;;;;;;5053597;28;20041;-68
2023/03/02 09:21:17;;;;;;;450.65;103.10;;;5.70;99.90;;;;;;5054056;28;20033;-68
2023/03/02 09:23:43;;;;;;;448.25;102.72;;;5.90;99.90;;;;;;5054125;28;20052;-68
2023/03/02 09:26:11;;;;;;;407.10;103.75;;;5.90;99.90;;;;;;5053936;28;20029;-68
2023/03/02 09:28:38;;;;;;;422.23;99.10;;;5.70;99.90;;;;;;5053708;28;20032;-69
2023/03/02 09:31:07;;;;;;;417.77;100.80;;;5.80;99.90;;;;;;5053154;28;20033;-69
2023/03/02 09:33:34;;;;;;;432.63;103.85;;;5.60;99.90;;;;;;5053047;28;20032;-69
2023/03/02 09:36:08;;;;;;;399.27;98.03;;;5.60;99.90;;;;;;5053753;28;20025;-69
2023/03/02 09:38:34;;;;;;;385.58;95.00;;;5.70;99.90;;;;;;5053458;28;20029;-69
2023/03/02 09:41:18;;;;;;;430.48;101.15;;;5.60;99.90;;;;;;5053483;28;20052;-68
2023/03/02 09:43:44;;;;;;;410.33;101.20;;;5.50;99.90;;;;;;5054443;28;20061;-69
2023/03/02 09:46:25;;;;;;;415.00;102.70;;;5.50;99.90;;;;;;5051203;28;20539;-69
2023/03/02 09:48:57;;;;;;;433.65;106.38;;;5.50;99.90;;;;;;5053241;28;20029;-69
2023/03/02 09:51:29;;;;;;;419.58;106.43;;;5.60;99.90;;;;;;5054210;28;20556;-69
2023/03/02 09:54:12;;;;;;;428.25;112.88;;;5.60;99.90;;;;;;5051566;28;20032;-69
2023/03/02 09:56:47;;;;;;;454.17;113.45;;;5.70;99.90;;;;;;5053492;28;20028;-68
2023/03/02 09:59:25;;;;;;;482.40;119.65;;;6.10;99.90;;;;;;5052223;28;20056;-69
2023/03/02 10:02:39;;;;;;;452.90;108.13;;;6.20;99.90;;;;;;5054071;28;20032;-69
2023/03/02 10:05:12;;;;;;;481.27;112.28;;;6.20;99.90;;;;;;5051609;28;20040;-69
2023/03/02 10:07:38;;;;;;;500.00;115.97;;;6.30;99.90;;;;;;5053099;28;20354;-69
2023/03/02 10:10:13;;;;;;;478.85;118.10;;;6.50;99.90;;;;;;5051638;28;21483;-69
2023/03/02 10:12:59;;;;;;;487.90;126.75;;;6.30;99.90;;;;;;5051871;28;20096;-69
2023/03/02 10:15:40;;;;;;;510.40;123.60;;;6.20;99.90;;;;;;5053788;28;20040;-69
2023/03/02 10:18:50;;;;;;;507.40;127.05;;;6.30;99.90;;;;;;5053021;28;20029;-69
2023/03/02 10:21:31;;;;;;;542.13;128.50;;;6.40;99.90;;;;;;5050677;28;20017;-69
2023/03/02 10:24:11;;;;;;;534.45;129.77;;;6.40;99.90;;;;;;5053211;28;20097;-69
2023/03/02 10:26:40;;;;;;;519.35;127.20;;;6.40;99.90;;;;;;5052517;28;20390;-69
2023/03/02 10:29:09;;;;;;;572.45;139.30;;;6.40;99.90;;;;;;5053290;28;20029;-69
2023/03/02 10:31:39;;;;;;;597.40;141.73;;;6.50;99.90;;;;;;5053142;28;20033;-69
2023/03/02 10:34:09;;;;;;;622.95;147.02;;;6.50;99.90;;;;;;5054223;28;20036;-69
2023/03/02 10:36:41;;;;;;;564.17;133.98;;;6.50;99.90;;;;;;5053956;28;20036;-69
2023/03/02 10:39:15;;;;;;;597.17;140.73;;;6.50;99.90;;;;;;5053581;28;20045;-70
2023/03/02 10:41:58;;;;;;;575.83;139.55;;;6.70;99.90;;;;;;5051300;28;20041;-69
2023/03/02 10:44:29;;;;;;;572.53;141.73;;;6.80;99.90;;;;;;5051917;28;20029;-69
2023/03/02 10:46:55;;;;;;;589.63;142.20;;;7.00;99.90;;;;;;5053153;28;20037;-69
2023/03/02 10:49:32;;;;;;;564.58;141.98;;;7.30;99.90;;;;;;5052978;28;20017;-70
2023/03/02 10:52:03;;;;;;;520.85;133.35;;;7.50;99.90;;;;;;5053095;28;20318;-70
2023/03/02 10:54:31;;;;;;;501.08;128.77;;;7.70;99.90;;;;;;5053171;28;20032;-70
2023/03/02 10:57:00;;;;;;;494.08;131.80;;;7.90;99.90;;;;;;5052597;28;20687;-70
2023/03/02 10:59:39;;;;;;;437.58;113.30;;;7.90;99.90;;;;;;5052136;28;20021;-70
2023/03/02 11:02:22;;;;;;;371.23;105.47;;;7.90;99.90;;;;;;5051288;28;20024;-70
2023/03/02 11:05:09;;;;;;;362.73;100.40;;;7.60;99.90;;;;;;5049883;28;20505;-65
2023/03/02 11:07:35;;;;;;;301.88;87.63;;;8.00;99.90;;;;;;5052777;28;20112;-65
2023/03/02 11:10:16;;;;;;;354.33;99.78;;;7.60;99.90;;;;;;5056730;28;20025;-65
2023/03/02 11:12:45;;;;;;;;;;;8.00;99.90;;;;;;5038289;28;20044;-65
2023/03/02 11:15:24;;;;;;;315.85;90.93;;;8.20;99.90;;;;;;5055874;28;19992;-65
2023/03/02 11:18:18;;;;;;;307.45;92.00;;;8.10;99.90;;;;;;5056392;28;20029;-65
2023/03/02 11:20:49;;;;;;;362.48;103.68;;;8.10;99.90;;;;;;5054785;28;20025;-65
2023/03/02 11:23:44;;;;;;;343.75;97.45;;;8.30;99.90;;;;;;5051487;28;20032;-65
2023/03/02 11:26:13;;;;;;;374.77;103.43;;;8.20;99.90;;;;;;5055439;28;20378;-65
2023/03/02 11:28:47;;;;;;;299.42;90.55;;;8.30;99.90;;;;;;5055140;28;20020;-65
2023/03/02 11:31:22;;;;;;;297.02;88.60;;;8.10;99.90;;;;;;5054410;28;20072;-65
2023/03/02 11:34:18;;;;;;;324.52;93.40;;;8.00;99.90;;;;;;5051925;28;20545;-65
2023/03/02 11:36:57;;;;;;;360.00;102.18;;;8.00;99.90;;;;;;5040280;28;20032;-65
2023/03/02 11:39:47;;;;;;;366.85;101.40;;;8.00;99.90;;;;;;5052414;28;20609;-65
2023/03/02 11:42:33;;;;;;;369.10;99.88;;;8.00;99.90;;;;;;5047850;28;20402;-65
2023/03/02 11:45:18;;;;;;;354.70;97.68;;;7.80;99.90;;;;;;5054023;28;20027;-65
2023/03/02 11:47:50;;;;;;;378.45;98.80;;;7.90;99.90;;;;;;5055800;28;20029;-65
2023/03/02 11:50:16;;;;;;;428.38;110.97;;;7.80;99.90;;;;;;5056023;28;20045;-65
2023/03/02 11:52:53;;;;;;;378.25;106.93;;;7.90;99.90;;;;;;5055937;28;20108;-65
2023/03/02 11:55:25;;;;;;;486.73;124.35;;;8.00;99.90;;;;;;5055578;28;20102;-65
2023/03/02 11:57:58;;;;;;;503.48;130.18;;;8.10;99.90;;;;;;5055735;28;20047;-65
2023/03/02 12:00:24;;;;;;;511.77;128.35;;;8.20;99.90;;;;;;5055518;28;20386;-65
2023/03/02 12:03:04;;;;;;;566.17;145.68;;;8.30;99.90;;;;;;5055489;28;20082;-65
2023/03/02 12:05:34;;;;;;;565.95;146.55;;;8.30;99.90;;;;;;5055825;28;20056;-65
2023/03/02 12:08:26;;;;;;;581.78;153.48;;;8.40;99.90;;;;;;5055706;28;20040;-65
2023/03/02 12:11:24;;;;;;;564.47;152.90;;;8.40;99.90;;;;;;5054764;28;20522;-65
2023/03/02 12:14:03;;;;;;;496.60;135.77;;;8.50;99.90;;;;;;5037254;28;20089;-65
2023/03/02 12:16:39;;;;;;;515.45;141.07;;;8.50;99.90;;;;;;5055557;28;20033;-66
2023/03/02 12:19:16;;;;;;;510.92;145.73;;;8.30;99.90;;;;;;5036866;28;20100;-65
2023/03/02 12:21:58;;;;;;;507.42;140.50;;;8.30;99.90;;;;;;5055354;28;20051;-66
2023/03/02 12:24:31;;;;;;;437.83;131.73;;;8.40;99.90;;;;;;5055319;28;20025;-66
2023/03/02 12:27:05;;;;;;;564.80;149.02;;;8.40;99.90;;;;;;5055323;28;20459;-66
2023/03/02 12:29:44;;;;;;;595.53;160.25;;;8.30;99.90;;;;;;5048908;28;20490;-65
2023/03/02 12:32:23;;;;;;;568.25;152.45;;;8.30;99.90;;;;;;5035735;28;20414;-66
2023/03/02 12:35:08;;;;;;;559.42;158.05;;;8.10;99.90;;;;;;5035802;28;20037;-65
2023/03/02 12:37:46;;;;;;;539.13;148.50;;;8.10;99.90;;;;;;5035847;28;20144;-65